createdAt,value
2024-01-16T00:01:13.979Z,69.41
2024-01-16T00:03:41.270Z,69.35
2024-01-16T00:06:08.894Z,69.53
2024-01-16T00:08:36.248Z,69.42
2024-01-16T00:11:04.620Z,69.31
2024-01-16T00:13:33.585Z,69.14
2024-01-16T00:16:04.021Z,69.11
2024-01-16T00:18:31.532Z,69.28
2024-01-16T00:20:58.833Z,68.75
2024-01-16T00:23:26.307Z,68.71
2024-01-16T00:25:53.508Z,68.62
2024-01-16T00:28:21.148Z,68.36
2024-01-16T00:30:48.500Z,68.18
2024-01-16T00:33:15.837Z,68.56
2024-01-16T00:35:43.368Z,68.46
2024-01-16T00:38:10.687Z,68.30
2024-01-16T00:40:37.933Z,68.08
2024-01-16T00:43:05.583Z,68.03
2024-01-16T00:45:32.845Z,68.05
2024-01-16T00:48:00.397Z,67.87
2024-01-16T00:50:28.083Z,67.54
2024-01-16T00:52:55.235Z,67.58
2024-01-16T00:55:22.458Z,67.87
2024-01-16T00:57:49.619Z,67.58
2024-01-16T01:00:16.983Z,67.73
2024-01-16T01:02:45.411Z,67.42
2024-01-16T01:05:12.750Z,67.38
2024-01-16T01:07:39.957Z,67.25
2024-01-16T01:10:07.560Z,67.46
2024-01-16T01:12:34.736Z,67.26
2024-01-16T01:15:03.036Z,67.09
2024-01-16T01:17:31.785Z,67.25
2024-01-16T01:19:59.011Z,66.99
2024-01-16T01:22:26.359Z,66.74
2024-01-16T01:24:53.647Z,66.91
2024-01-16T01:27:20.903Z,66.54
2024-01-16T01:29:48.109Z,66.91
2024-01-16T01:32:15.342Z,66.56
2024-01-16T01:34:45.298Z,66.87
2024-01-16T01:37:12.635Z,66.45
2024-01-16T01:39:39.796Z,66.61
2024-01-16T01:42:07.032Z,66.49
2024-01-16T01:44:34.331Z,66.51
2024-01-16T01:47:01.707Z,66.00
2024-01-16T01:49:29.223Z,66.19
2024-01-16T01:51:56.896Z,66.67
2024-01-16T01:54:26.167Z,66.27
2024-01-16T01:56:53.761Z,66.42
2024-01-16T01:59:23.353Z,66.48
2024-01-16T02:01:54.125Z,66.51
2024-01-16T02:04:22.916Z,66.31
2024-01-16T02:06:50.346Z,66.07
2024-01-16T02:09:17.591Z,66.18
2024-01-16T02:11:44.877Z,66.36
2024-01-16T02:14:13.271Z,66.01
2024-01-16T02:16:42.424Z,65.86
2024-01-16T02:19:10.105Z,65.97
2024-01-16T02:21:51.197Z,65.92
2024-01-16T02:24:20.367Z,65.80
2024-01-16T02:26:48.456Z,65.67
2024-01-16T02:29:17.698Z,65.83
2024-01-16T02:31:45.049Z,65.91
2024-01-16T02:34:12.433Z,65.78
2024-01-16T02:36:40.022Z,65.28
2024-01-16T02:39:07.811Z,65.43
2024-01-16T02:41:35.210Z,65.61
2024-01-16T02:44:02.834Z,65.76
2024-01-16T02:46:30.058Z,65.84
2024-01-16T02:48:57.406Z,65.33
2024-01-16T02:51:24.653Z,65.29
2024-01-16T02:53:51.891Z,65.10
2024-01-16T02:56:19.355Z,65.23
2024-01-16T02:58:46.645Z,65.58
2024-01-16T03:01:15.759Z,65.33
2024-01-16T03:03:43.127Z,65.29
2024-01-16T03:06:10.501Z,65.40
2024-01-16T03:08:37.757Z,65.52
2024-01-16T03:11:05.205Z,65.03
2024-01-16T03:13:32.436Z,65.05
2024-01-16T03:15:59.738Z,65.21
2024-01-16T03:18:27.635Z,65.43
2024-01-16T03:20:55.083Z,65.04
2024-01-16T03:23:22.300Z,65.22
2024-01-16T03:25:49.491Z,64.71
2024-01-16T03:28:16.813Z,65.01
2024-01-16T03:30:44.149Z,64.81
2024-01-16T03:33:11.616Z,65.00
2024-01-16T03:35:38.967Z,65.20
2024-01-16T03:38:06.166Z,64.99
2024-01-16T03:40:35.650Z,64.67
2024-01-16T03:43:03.271Z,65.05
2024-01-16T03:45:30.450Z,65.16
2024-01-16T03:47:57.877Z,64.79
2024-01-16T03:50:25.170Z,65.10
2024-01-16T03:52:52.501Z,64.92
2024-01-16T03:55:19.786Z,64.81
2024-01-16T03:57:46.936Z,65.00
2024-01-16T04:00:15.162Z,64.53
2024-01-16T04:02:42.328Z,64.87
2024-01-16T04:05:09.736Z,64.70
2024-01-16T04:07:37.024Z,64.73
2024-01-16T04:10:06.523Z,64.85
2024-01-16T04:12:33.941Z,64.93
2024-01-16T04:15:01.228Z,64.55
2024-01-16T04:17:29.870Z,65.18
2024-01-16T04:19:57.118Z,64.97
2024-01-16T04:22:24.315Z,64.31
2024-01-16T04:24:51.605Z,64.38
2024-01-16T04:27:18.823Z,64.99
2024-01-16T04:29:46.360Z,64.70
2024-01-16T04:32:13.636Z,65.02
2024-01-16T04:34:40.925Z,65.10
2024-01-16T04:37:08.115Z,64.46
2024-01-16T04:39:35.358Z,64.38
2024-01-16T04:42:02.560Z,64.52
2024-01-16T04:44:30.298Z,64.49
2024-01-16T04:46:57.703Z,64.96
2024-01-16T04:49:25.494Z,64.63
2024-01-16T04:51:52.828Z,64.72
2024-01-16T04:54:20.007Z,64.29
2024-01-16T04:56:47.386Z,64.48
2024-01-16T04:59:16.907Z,64.59
2024-01-16T05:01:44.294Z,64.43
2024-01-16T05:04:11.799Z,64.76
2024-01-16T05:06:39.883Z,64.00
2024-01-16T05:09:07.119Z,64.33
2024-01-16T05:11:34.351Z,64.38
2024-01-16T05:14:01.582Z,64.19
2024-01-16T05:16:28.950Z,63.84
2024-01-16T05:18:57.575Z,64.68
2024-01-16T05:21:24.844Z,64.28
2024-01-16T05:23:52.308Z,64.00
2024-01-16T05:26:19.712Z,64.14
2024-01-16T05:28:46.915Z,64.22
2024-01-16T05:31:14.100Z,63.89
2024-01-16T05:33:41.362Z,63.88
2024-01-16T05:36:09.689Z,64.29
2024-01-16T05:38:38.979Z,64.16
2024-01-16T05:41:06.462Z,64.44
2024-01-16T05:43:33.680Z,64.23
2024-01-16T05:46:02.056Z,63.84
2024-01-16T05:48:29.436Z,64.07
2024-01-16T05:50:56.841Z,63.91
2024-01-16T05:53:24.110Z,63.79
2024-01-16T05:55:51.394Z,63.28
2024-01-16T05:58:18.608Z,63.52
2024-01-16T06:00:45.940Z,63.92
2024-01-16T06:03:13.130Z,63.61
2024-01-16T06:05:40.473Z,63.69
2024-01-16T06:08:07.865Z,63.69
2024-01-16T06:10:35.099Z,63.59
2024-01-16T06:13:02.406Z,63.93
2024-01-16T06:15:29.675Z,63.55
2024-01-16T06:17:56.898Z,63.40
2024-01-16T06:20:26.045Z,63.92
2024-01-16T06:22:53.365Z,63.64
2024-01-16T06:25:20.604Z,63.51
2024-01-16T06:27:47.770Z,63.55
2024-01-16T06:30:15.327Z,63.32
2024-01-16T06:32:42.814Z,63.20
2024-01-16T06:35:10.203Z,63.46
2024-01-16T06:37:38.156Z,63.42
2024-01-16T06:40:07.063Z,63.25
2024-01-16T06:42:34.810Z,63.40
2024-01-16T06:45:02.354Z,63.88
2024-01-16T06:47:30.818Z,63.43
2024-01-16T06:49:58.085Z,63.27
2024-01-16T06:52:25.884Z,63.00
2024-01-16T06:54:53.063Z,63.49
2024-01-16T06:57:20.213Z,63.05
2024-01-16T06:59:47.860Z,63.04
2024-01-16T07:02:15.119Z,62.98
2024-01-16T07:04:42.420Z,62.83
2024-01-16T07:07:09.641Z,63.32
2024-01-16T07:09:36.850Z,63.08
2024-01-16T07:12:05.418Z,63.09
2024-01-16T07:14:34.107Z,62.92
2024-01-16T07:17:01.380Z,63.11
2024-01-16T07:19:28.615Z,63.47
2024-01-16T07:21:56.219Z,63.16
2024-01-16T07:24:24.642Z,63.31
2024-01-16T07:26:52.027Z,63.26
2024-01-16T07:29:20.058Z,63.34
2024-01-16T07:31:47.796Z,63.70
2024-01-16T07:34:21.283Z,63.56
2024-01-16T07:36:48.981Z,63.77
2024-01-16T07:39:16.325Z,63.72
2024-01-16T07:41:43.749Z,63.54
2024-01-16T07:44:11.052Z,63.85
2024-01-16T07:46:39.008Z,63.36
2024-01-16T07:49:07.196Z,63.70
2024-01-16T07:51:34.518Z,63.50
2024-01-16T07:54:10.311Z,63.69
2024-01-16T07:56:39.255Z,63.67
2024-01-16T07:59:06.728Z,63.12
2024-01-16T08:01:34.058Z,63.76
2024-01-16T08:04:01.565Z,63.36
2024-01-16T08:06:29.296Z,63.13
2024-01-16T08:08:57.130Z,63.13
2024-01-16T08:11:25.061Z,63.17
2024-01-16T08:13:52.421Z,63.01
2024-01-16T08:16:19.719Z,63.10
2024-01-16T08:18:47.154Z,63.29
2024-01-16T08:21:14.529Z,62.75
2024-01-16T08:23:41.880Z,62.45
2024-01-16T08:26:09.290Z,62.53
2024-01-16T08:28:37.115Z,62.22
2024-01-16T08:31:05.433Z,62.19
2024-01-16T08:33:37.543Z,62.29
2024-01-16T08:36:10.837Z,61.95
2024-01-16T08:38:38.199Z,61.80
2024-01-16T08:41:07.809Z,61.99
2024-01-16T08:43:35.367Z,61.76
2024-01-16T08:46:03.350Z,61.60
2024-01-16T08:48:31.033Z,61.18
2024-01-16T08:50:58.615Z,61.27
2024-01-16T08:53:26.032Z,61.38
2024-01-16T08:55:53.382Z,60.87
2024-01-16T08:58:20.927Z,60.92
2024-01-16T09:00:48.710Z,60.74
2024-01-16T09:03:16.241Z,60.50
2024-01-16T09:05:45.089Z,60.39
2024-01-16T09:08:14.058Z,60.72
2024-01-16T09:10:41.808Z,60.26
2024-01-16T09:13:10.448Z,59.85
2024-01-16T09:15:38.017Z,60.04
2024-01-16T09:18:06.733Z,59.90
2024-01-16T09:20:34.800Z,59.62
2024-01-16T09:23:02.539Z,59.64
2024-01-16T09:25:31.209Z,59.38
2024-01-16T09:27:59.068Z,59.31
2024-01-16T09:30:26.723Z,59.12
2024-01-16T09:32:54.219Z,59.05
2024-01-16T09:35:21.682Z,58.88
2024-01-16T09:37:49.595Z,58.87
2024-01-16T09:40:17.639Z,58.80
2024-01-16T09:42:47.041Z,58.69
2024-01-16T09:45:21.812Z,58.22
2024-01-16T09:47:52.268Z,58.19
2024-01-16T09:50:20.968Z,58.68
2024-01-16T09:52:48.848Z,58.27
2024-01-16T09:55:17.022Z,58.55
2024-01-16T09:57:47.666Z,58.43
2024-01-16T10:00:16.882Z,58.33
2024-01-16T10:02:44.350Z,57.82
2024-01-16T10:05:13.338Z,58.22
2024-01-16T10:07:42.531Z,57.95
2024-01-16T10:10:12.303Z,58.27
2024-01-16T10:12:40.962Z,58.25
2024-01-16T10:15:09.352Z,57.84
2024-01-16T10:17:38.678Z,57.48
2024-01-16T10:20:07.728Z,58.09
2024-01-16T10:22:35.240Z,57.93
2024-01-16T10:25:07.630Z,57.88
2024-01-16T10:27:35.782Z,57.79
2024-01-16T10:30:04.618Z,57.73
2024-01-16T10:32:39.366Z,57.36
2024-01-16T10:35:14.910Z,57.37
2024-01-16T10:37:43.608Z,57.75
2024-01-16T10:40:11.257Z,57.62
2024-01-16T10:42:39.728Z,57.53
2024-01-16T10:45:07.960Z,57.66
2024-01-16T10:47:38.789Z,57.30
2024-01-16T10:50:08.571Z,57.33
2024-01-16T10:52:42.731Z,57.71
2024-01-16T10:55:24.243Z,56.99
2024-01-16T10:57:52.924Z,57.17
2024-01-16T11:00:24.130Z,57.38
2024-01-16T11:03:07.024Z,57.05
2024-01-16T11:05:37.277Z,57.58
2024-01-16T11:08:06.639Z,57.41
2024-01-16T11:10:37.511Z,57.02
2024-01-16T11:13:06.469Z,57.42
2024-01-16T11:15:34.152Z,57.20
2024-01-16T11:18:03.095Z,57.55
2024-01-16T11:20:55.129Z,57.30
2024-01-16T11:23:19.519Z,57.47
2024-01-16T11:25:47.240Z,57.54
2024-01-16T11:28:15.775Z,57.25
2024-01-16T11:31:02.708Z,57.52
2024-01-16T11:33:32.933Z,57.25
2024-01-16T11:36:01.487Z,57.26
2024-01-16T11:38:31.196Z,57.22
2024-01-16T11:40:58.647Z,56.90
2024-01-16T11:43:35.465Z,57.25
2024-01-16T11:46:04.027Z,57.34
2024-01-16T11:48:31.427Z,57.57
2024-01-16T11:50:58.877Z,57.94
2024-01-16T11:53:32.600Z,57.29
2024-01-16T11:56:31.163Z,57.40
2024-01-16T11:59:08.775Z,57.32
2024-01-16T12:01:36.969Z,57.66
2024-01-16T12:04:08.386Z,57.96
2024-01-16T12:06:37.518Z,57.71
2024-01-16T12:09:21.508Z,57.47
2024-01-16T12:12:02.791Z,57.75
2024-01-16T12:14:31.232Z,58.11
2024-01-16T12:17:15.451Z,57.96
2024-01-16T12:19:44.605Z,58.21
2024-01-16T12:22:15.455Z,58.36
2024-01-16T12:24:43.084Z,57.90
2024-01-16T12:27:11.057Z,57.71
2024-01-16T12:29:38.424Z,58.14
2024-01-16T12:32:11.140Z,58.29
2024-01-16T12:34:50.087Z,58.51
2024-01-16T12:37:18.507Z,58.03
2024-01-16T12:39:46.152Z,58.02
2024-01-16T12:42:14.351Z,58.00
2024-01-16T12:44:42.046Z,58.00
2024-01-16T12:47:10.072Z,58.61
2024-01-16T12:49:44.648Z,58.58
2024-01-16T12:52:27.613Z,58.27
2024-01-16T12:55:09.645Z,58.15
2024-01-16T12:57:38.541Z,58.50
2024-01-16T13:00:27.273Z,58.53
2024-01-16T13:02:56.883Z,58.20
2024-01-16T13:05:24.511Z,58.62
2024-01-16T13:08:04.685Z,58.59
2024-01-16T13:10:33.179Z,58.44
2024-01-16T13:13:20.031Z,58.32
2024-01-16T13:15:47.804Z,58.26
2024-01-16T13:18:33.835Z,58.37
2024-01-16T13:21:02.321Z,58.46
2024-01-16T13:23:30.089Z,58.93
2024-01-16T13:25:58.363Z,58.60
2024-01-16T13:28:26.691Z,58.68
2024-01-16T13:30:54.575Z,58.28
2024-01-16T13:33:29.486Z,58.91
2024-01-16T13:35:56.969Z,58.72
2024-01-16T13:38:25.462Z,58.39
2024-01-16T13:40:52.947Z,58.51
2024-01-16T13:43:22.645Z,58.32
2024-01-16T13:45:51.118Z,58.29
2024-01-16T13:48:19.316Z,58.49
2024-01-16T13:50:47.200Z,58.63
2024-01-16T13:53:14.727Z,58.45
2024-01-16T13:55:42.710Z,59.26
2024-01-16T13:58:10.387Z,59.01
2024-01-16T14:00:37.721Z,58.80
2024-01-16T14:03:07.041Z,58.98
2024-01-16T14:05:34.568Z,59.51
2024-01-16T14:08:01.953Z,58.96
2024-01-16T14:10:29.279Z,59.29
2024-01-16T14:12:56.869Z,58.73
2024-01-16T14:15:25.435Z,58.81
2024-01-16T14:17:55.740Z,58.70
2024-01-16T14:20:27.767Z,58.74
2024-01-16T14:22:56.493Z,58.60
2024-01-16T14:25:24.782Z,59.03
2024-01-16T14:28:05.523Z,59.26
2024-01-16T14:30:34.733Z,58.81
2024-01-16T14:33:03.016Z,59.41
2024-01-16T14:35:30.591Z,59.18
2024-01-16T14:37:58.608Z,59.01
2024-01-16T14:40:29.252Z,58.87
2024-01-16T14:43:00.621Z,59.18
2024-01-16T14:45:29.142Z,58.66
2024-01-16T14:47:56.748Z,58.58
2024-01-16T14:50:25.791Z,59.10
2024-01-16T14:52:53.866Z,59.09
2024-01-16T14:55:21.842Z,58.98
2024-01-16T14:57:54.497Z,58.81
2024-01-16T15:00:24.383Z,58.87
2024-01-16T15:02:52.248Z,59.01
2024-01-16T15:05:21.068Z,58.56
2024-01-16T15:07:49.938Z,58.50
2024-01-16T15:10:18.038Z,58.98
2024-01-16T15:12:48.351Z,59.20
2024-01-16T15:15:17.014Z,58.73
2024-01-16T15:17:46.025Z,58.94
2024-01-16T15:20:13.885Z,58.40
2024-01-16T15:22:47.258Z,58.84
2024-01-16T15:25:17.086Z,58.79
2024-01-16T15:27:46.831Z,59.10
2024-01-16T15:30:16.800Z,58.96
2024-01-16T15:32:44.455Z,59.13
2024-01-16T15:35:12.724Z,58.85
2024-01-16T15:37:40.557Z,59.00
2024-01-16T15:40:08.612Z,59.32
2024-01-16T15:42:40.538Z,59.28
2024-01-16T15:45:09.292Z,59.16
2024-01-16T15:47:37.873Z,59.71
2024-01-16T15:50:06.739Z,59.34
2024-01-16T15:52:34.407Z,59.47
2024-01-16T15:55:02.684Z,59.27
2024-01-16T15:57:31.537Z,59.13
2024-01-16T15:59:58.908Z,59.38
2024-01-16T16:02:26.263Z,59.46
2024-01-16T16:04:55.320Z,59.36
2024-01-16T16:07:25.006Z,59.39
2024-01-16T16:09:53.751Z,59.27
2024-01-16T16:12:21.324Z,59.13
2024-01-16T16:14:48.827Z,59.02
2024-01-16T16:17:16.309Z,59.38
2024-01-16T16:19:43.891Z,59.42
2024-01-16T16:22:11.393Z,59.42
2024-01-16T16:24:39.153Z,59.32
2024-01-16T16:27:26.950Z,59.09
2024-01-16T16:29:57.788Z,59.32
2024-01-16T16:32:26.003Z,59.24
2024-01-16T16:34:54.726Z,58.94
2024-01-16T16:37:22.778Z,59.32
2024-01-16T16:39:50.349Z,58.89
2024-01-16T16:42:20.011Z,59.36
2024-01-16T16:44:48.273Z,59.38
2024-01-16T16:47:17.070Z,59.28
2024-01-16T16:49:44.834Z,58.48
2024-01-16T16:52:12.330Z,59.10
2024-01-16T16:54:39.800Z,58.61
2024-01-16T16:57:07.300Z,58.85
2024-01-16T16:59:34.805Z,59.18
2024-01-16T17:02:02.205Z,58.55
2024-01-16T17:04:29.720Z,58.75
2024-01-16T17:06:58.167Z,59.10
2024-01-16T17:09:26.179Z,59.23
2024-01-16T17:11:53.602Z,58.83
2024-01-16T17:14:20.913Z,58.98
2024-01-16T17:16:48.693Z,58.78
2024-01-16T17:19:16.380Z,58.74
2024-01-16T17:21:44.467Z,58.81
2024-01-16T17:24:11.971Z,58.89
2024-01-16T17:26:40.880Z,59.08
2024-01-16T17:29:08.485Z,59.54
2024-01-16T17:31:38.218Z,59.44
2024-01-16T17:34:06.954Z,59.46
2024-01-16T17:36:34.520Z,59.11
2024-01-16T17:39:02.266Z,58.99
2024-01-16T17:41:31.166Z,59.35
2024-01-16T17:43:59.425Z,59.24
2024-01-16T17:46:26.798Z,59.10
2024-01-16T17:48:55.808Z,59.17
2024-01-16T17:51:25.529Z,59.14
2024-01-16T17:53:54.649Z,58.87
2024-01-16T17:56:25.163Z,58.62
2024-01-16T17:58:53.715Z,58.73
2024-01-16T18:01:21.439Z,58.65
2024-01-16T18:03:49.250Z,59.15
2024-01-16T18:06:23.484Z,59.11
2024-01-16T18:08:51.276Z,58.61
2024-01-16T18:11:18.764Z,58.80
2024-01-16T18:13:46.652Z,58.90
2024-01-16T18:16:15.220Z,58.95
2024-01-16T18:18:43.010Z,59.22
2024-01-16T18:21:13.905Z,59.39
2024-01-16T18:23:44.491Z,59.27
2024-01-16T18:26:13.632Z,59.41
2024-01-16T18:28:41.567Z,59.60
2024-01-16T18:31:10.561Z,59.51
2024-01-16T18:33:40.269Z,59.79
2024-01-16T18:36:08.156Z,59.78
2024-01-16T18:38:35.680Z,59.98
2024-01-16T18:41:05.467Z,59.82
2024-01-16T18:43:33.399Z,60.39
2024-01-16T18:46:00.735Z,60.37
2024-01-16T18:48:30.482Z,60.33
2024-01-16T18:50:58.129Z,60.27
2024-01-16T18:53:26.591Z,60.16
2024-01-16T18:55:54.127Z,60.34
2024-01-16T18:58:24.621Z,60.53
2024-01-16T19:00:57.831Z,60.84
2024-01-16T19:03:25.525Z,60.22
2024-01-16T19:05:57.900Z,60.70
2024-01-16T19:08:25.710Z,60.75
2024-01-16T19:10:55.156Z,60.97
2024-01-16T19:13:25.627Z,61.00
2024-01-16T19:15:53.751Z,61.78
2024-01-16T19:18:21.854Z,61.37
2024-01-16T19:20:49.676Z,61.46
2024-01-16T19:23:17.985Z,61.67
2024-01-16T19:25:47.205Z,61.65
2024-01-16T19:28:14.673Z,61.52
2024-01-16T19:30:42.148Z,61.72
2024-01-16T19:33:09.790Z,61.50
2024-01-16T19:35:38.114Z,61.49
2024-01-16T19:38:05.870Z,61.56
2024-01-16T19:40:33.721Z,61.43
2024-01-16T19:43:06.512Z,61.42
2024-01-16T19:45:34.309Z,61.74
2024-01-16T19:48:04.575Z,61.87
2024-01-16T19:50:33.536Z,61.36
2024-01-16T19:53:04.065Z,61.78
2024-01-16T19:55:32.069Z,61.15
2024-01-16T19:58:01.428Z,61.45
2024-01-16T20:00:29.197Z,61.41
2024-01-16T20:02:57.170Z,61.61
2024-01-16T20:05:24.685Z,61.12
2024-01-16T20:07:52.272Z,61.64
2024-01-16T20:10:19.652Z,61.38
2024-01-16T20:12:49.897Z,61.11
2024-01-16T20:15:23.036Z,61.33
2024-01-16T20:17:51.927Z,61.32
2024-01-16T20:20:20.191Z,61.21
2024-01-16T20:22:48.435Z,61.22
2024-01-16T20:25:16.101Z,61.77
2024-01-16T20:27:44.456Z,61.68
2024-01-16T20:30:14.222Z,61.43
2024-01-16T20:32:44.705Z,61.65
2024-01-16T20:35:14.344Z,61.69
2024-01-16T20:37:42.625Z,61.63
2024-01-16T20:40:10.950Z,61.68
2024-01-16T20:42:38.589Z,62.07
2024-01-16T20:45:10.712Z,61.91
2024-01-16T20:47:42.242Z,62.14
2024-01-16T20:50:11.231Z,62.13
2024-01-16T20:52:39.086Z,61.81
2024-01-16T20:55:08.587Z,62.13
2024-01-16T20:57:36.803Z,62.02
2024-01-16T21:00:14.187Z,61.86
2024-01-16T21:02:42.515Z,62.20
2024-01-16T21:05:09.966Z,62.07
2024-01-16T21:07:37.546Z,61.64
2024-01-16T21:10:05.573Z,61.73
2024-01-16T21:12:33.399Z,61.80
2024-01-16T21:15:01.040Z,61.69
2024-01-16T21:17:29.630Z,61.54
2024-01-16T21:19:56.997Z,61.68
2024-01-16T21:22:30.835Z,61.43
2024-01-16T21:25:03.499Z,61.75
2024-01-16T21:27:30.747Z,61.48
2024-01-16T21:29:58.161Z,61.39
2024-01-16T21:32:25.960Z,61.21
2024-01-16T21:34:53.365Z,61.13
2024-01-16T21:37:20.622Z,61.44
2024-01-16T21:39:47.867Z,61.32
2024-01-16T21:42:15.334Z,61.41
2024-01-16T21:44:42.635Z,60.85
2024-01-16T21:47:10.374Z,60.69
2024-01-16T21:49:37.666Z,60.73
2024-01-16T21:52:05.147Z,60.57
2024-01-16T21:54:33.926Z,60.82
2024-01-16T21:57:01.305Z,60.62
2024-01-16T21:59:28.607Z,60.58
2024-01-16T22:01:55.863Z,60.99
2024-01-16T22:04:23.092Z,60.87
2024-01-16T22:06:50.391Z,60.91
2024-01-16T22:09:22.280Z,60.59
2024-01-16T22:11:50.084Z,60.60
2024-01-16T22:14:17.421Z,60.10
2024-01-16T22:16:44.655Z,60.56
2024-01-16T22:19:11.891Z,60.43
2024-01-16T22:21:39.143Z,59.76
2024-01-16T22:24:06.701Z,59.54
2024-01-16T22:26:34.246Z,59.74
2024-01-16T22:29:01.609Z,60.06
2024-01-16T22:31:28.881Z,60.07
2024-01-16T22:33:56.284Z,59.82
2024-01-16T22:36:23.859Z,59.17
2024-01-16T22:38:51.145Z,59.41
2024-01-16T22:41:18.347Z,59.05
2024-01-16T22:43:46.479Z,58.76
2024-01-16T22:46:13.681Z,59.38
2024-01-16T22:48:41.639Z,58.63
2024-01-16T22:51:15.370Z,58.94
2024-01-16T22:53:44.004Z,58.83
2024-01-16T22:56:11.252Z,58.18
2024-01-16T22:58:43.305Z,58.45
2024-01-16T23:01:10.547Z,58.04
2024-01-16T23:03:37.993Z,58.01
2024-01-16T23:08:34.242Z,57.62
2024-01-16T23:11:01.552Z,58.46
2024-01-16T23:13:28.970Z,58.23
2024-01-16T23:15:56.166Z,58.03
2024-01-16T23:18:23.531Z,57.67
2024-01-16T23:20:50.844Z,58.19
2024-01-16T23:23:19.097Z,58.36
2024-01-16T23:25:46.980Z,58.45
2024-01-16T23:28:14.385Z,57.73
2024-01-16T23:30:41.680Z,58.33
2024-01-16T23:33:09.424Z,58.20
2024-01-16T23:35:36.825Z,58.22
2024-01-16T23:38:07.197Z,58.11
2024-01-16T23:40:34.448Z,57.75
2024-01-16T23:43:01.883Z,57.46
2024-01-16T23:45:33.711Z,58.21
2024-01-16T23:48:01.859Z,57.96
2024-01-16T23:50:30.339Z,57.83
2024-01-16T23:52:58.708Z,58.09
2024-01-16T23:55:26.225Z,57.74
2024-01-16T23:57:53.487Z,58.07
